Manea, United Kingdom
Current Conditions -  °F | °C
As of 3:58 AM on Friday 21 Nov 2014 (Local Time) from EGUN Reporting Station
Overcast Overcast  
Wind Chill: 42°   Ceiling: 2800
Heat Index: 45°   Visibility: 6mi
Dew Point: 42°   Wind: 6mph
Humidity: 91%   Direction: 70°ENE
Pressure: 30.18"   Gusts: NA
Location:  52.48°N, 0.18°E
Report Text: EGUN 210358Z AUTO 07005KT 9999 OVC028 07/06 A3018 RMK AO2 SLP223 T00710057
Loading
Personal Weather Stations






























Interactive Weather Map New forecast layout! Learn more

10-Day Weather Forecast

Advertisements
Track Severe Weather on mobile